sensor_id;sensor_type;location;lat;lon;timestamp;temperature;humidity
12013;DHT22;6065;48.138;16.402;2023-04-15T00:00:03;4.50;99.90
12013;DHT22;6065;48.138;16.402;2023-04-15T00:02:29;4.40;99.90
12013;DHT22;6065;48.138;16.402;2023-04-15T00:04:56;4.40;99.90
12013;DHT22;6065;48.138;16.402;2023-04-15T00:07:24;4.40;99.90
12013;DHT22;6065;48.138;16.402;2023-04-15T00:09:51;4.40;99.90
12013;DHT22;6065;48.138;16.402;2023-04-15T00:12:19;4.50;99.90
12013;DHT22;6065;48.138;16.402;2023-04-15T00:14:46;4.50;99.90
12013;DHT22;6065;48.138;16.402;2023-04-15T00:17:12;4.50;99.90
12013;DHT22;6065;48.138;16.402;2023-04-15T00:19:39;4.50;99.90
12013;DHT22;6065;48.138;16.402;2023-04-15T00:22:06;4.50;99.90
12013;DHT22;6065;48.138;16.402;2023-04-15T00:24:35;4.50;99.90
12013;DHT22;6065;48.138;16.402;2023-04-15T00:27:01;4.50;99.90
12013;DHT22;6065;48.138;16.402;2023-04-15T00:29:28;4.50;99.90
12013;DHT22;6065;48.138;16.402;2023-04-15T00:31:55;4.50;99.90
12013;DHT22;6065;48.138;16.402;2023-04-15T00:34:22;4.60;99.90
12013;DHT22;6065;48.138;16.402;2023-04-15T00:36:49;4.60;99.90
12013;DHT22;6065;48.138;16.402;2023-04-15T00:39:15;4.60;99.90
12013;DHT22;6065;48.138;16.402;2023-04-15T00:41:43;4.60;99.90
12013;DHT22;6065;48.138;16.402;2023-04-15T00:44:11;4.60;99.90
12013;DHT22;6065;48.138;16.402;2023-04-15T00:46:37;4.50;99.90
12013;DHT22;6065;48.138;16.402;2023-04-15T00:49:05;4.50;99.90
12013;DHT22;6065;48.138;16.402;2023-04-15T00:51:32;4.50;99.90
12013;DHT22;6065;48.138;16.402;2023-04-15T00:54:00;4.50;99.90
12013;DHT22;6065;48.138;16.402;2023-04-15T00:56:27;4.50;99.90
12013;DHT22;6065;48.138;16.402;2023-04-15T00:58:55;4.50;99.90
12013;DHT22;6065;48.138;16.402;2023-04-15T01:01:22;4.50;99.90
12013;DHT22;6065;48.138;16.402;2023-04-15T01:03:50;4.50;99.90
12013;DHT22;6065;48.138;16.402;2023-04-15T01:06:17;4.50;99.90
12013;DHT22;6065;48.138;16.402;2023-04-15T01:08:44;4.50;99.90
12013;DHT22;6065;48.138;16.402;2023-04-15T01:11:11;4.50;99.90
12013;DHT22;6065;48.138;16.402;2023-04-15T01:13:38;4.50;99.90
12013;DHT22;6065;48.138;16.402;2023-04-15T01:16:06;4.50;99.90
12013;DHT22;6065;48.138;16.402;2023-04-15T01:18:34;4.60;99.90
12013;DHT22;6065;48.138;16.402;2023-04-15T01:21:02;4.60;99.90
12013;DHT22;6065;48.138;16.402;2023-04-15T01:23:30;4.60;99.90
12013;DHT22;6065;48.138;16.402;2023-04-15T01:25:58;4.60;99.90
12013;DHT22;6065;48.138;16.402;2023-04-15T01:28:25;4.50;99.90
12013;DHT22;6065;48.138;16.402;2023-04-15T01:31:03;4.60;99.90
12013;DHT22;6065;48.138;16.402;2023-04-15T01:33:31;4.60;99.90
12013;DHT22;6065;48.138;16.402;2023-04-15T01:35:58;4.50;99.90
12013;DHT22;6065;48.138;16.402;2023-04-15T01:38:26;4.50;99.90
12013;DHT22;6065;48.138;16.402;2023-04-15T01:40:52;4.60;99.90
12013;DHT22;6065;48.138;16.402;2023-04-15T01:43:20;4.60;99.90
12013;DHT22;6065;48.138;16.402;2023-04-15T01:45:47;4.60;99.90
12013;DHT22;6065;48.138;16.402;2023-04-15T01:48:14;4.60;99.90
12013;DHT22;6065;48.138;16.402;2023-04-15T01:50:41;4.60;99.90
12013;DHT22;6065;48.138;16.402;2023-04-15T01:53:08;4.60;99.90
12013;DHT22;6065;48.138;16.402;2023-04-15T01:55:35;4.60;99.90
12013;DHT22;6065;48.138;16.402;2023-04-15T01:58:01;4.60;99.90
12013;DHT22;6065;48.138;16.402;2023-04-15T02:00:30;4.70;99.90
12013;DHT22;6065;48.138;16.402;2023-04-15T02:02:56;4.60;99.90
12013;DHT22;6065;48.138;16.402;2023-04-15T02:05:23;4.70;99.90
12013;DHT22;6065;48.138;16.402;2023-04-15T02:07:50;4.70;99.90
12013;DHT22;6065;48.138;16.402;2023-04-15T02:10:18;4.70;99.90
12013;DHT22;6065;48.138;16.402;2023-04-15T02:12:44;4.70;99.90
12013;DHT22;6065;48.138;16.402;2023-04-15T02:15:11;4.70;99.90
12013;DHT22;6065;48.138;16.402;2023-04-15T02:17:40;4.70;99.90
12013;DHT22;6065;48.138;16.402;2023-04-15T02:20:10;4.70;99.90
12013;DHT22;6065;48.138;16.402;2023-04-15T02:22:37;4.70;99.90
12013;DHT22;6065;48.138;16.402;2023-04-15T02:25:04;4.70;99.90
12013;DHT22;6065;48.138;16.402;2023-04-15T02:27:31;4.70;99.90
12013;DHT22;6065;48.138;16.402;2023-04-15T02:29:58;4.70;99.90
12013;DHT22;6065;48.138;16.402;2023-04-15T02:32:24;4.70;99.90
12013;DHT22;6065;48.138;16.402;2023-04-15T02:34:53;4.70;99.90
12013;DHT22;6065;48.138;16.402;2023-04-15T02:37:19;4.70;99.90
12013;DHT22;6065;48.138;16.402;2023-04-15T02:39:46;4.70;99.90
12013;DHT22;6065;48.138;16.402;2023-04-15T02:42:13;4.70;99.90
12013;DHT22;6065;48.138;16.402;2023-04-15T02:44:39;4.70;99.90
12013;DHT22;6065;48.138;16.402;2023-04-15T02:47:06;4.70;99.90
12013;DHT22;6065;48.138;16.402;2023-04-15T02:49:33;4.80;99.90
12013;DHT22;6065;48.138;16.402;2023-04-15T02:52:01;4.80;99.90
12013;DHT22;6065;48.138;16.402;2023-04-15T02:54:27;4.80;99.90
12013;DHT22;6065;48.138;16.402;2023-04-15T02:56:54;4.80;99.90
12013;DHT22;6065;48.138;16.402;2023-04-15T02:59:21;4.80;99.90
12013;DHT22;6065;48.138;16.402;2023-04-15T03:01:47;4.70;99.90
12013;DHT22;6065;48.138;16.402;2023-04-15T03:04:14;4.80;99.90
12013;DHT22;6065;48.138;16.402;2023-04-15T03:06:41;4.80;99.90
12013;DHT22;6065;48.138;16.402;2023-04-15T03:09:09;4.80;99.90
12013;DHT22;6065;48.138;16.402;2023-04-15T03:11:37;4.90;99.90
12013;DHT22;6065;48.138;16.402;2023-04-15T03:14:06;4.80;99.90
12013;DHT22;6065;48.138;16.402;2023-04-15T03:16:32;4.90;99.90
12013;DHT22;6065;48.138;16.402;2023-04-15T03:18:59;4.90;99.90
12013;DHT22;6065;48.138;16.402;2023-04-15T03:21:26;4.90;99.90
12013;DHT22;6065;48.138;16.402;2023-04-15T03:23:53;4.90;99.90
12013;DHT22;6065;48.138;16.402;2023-04-15T03:26:26;4.90;99.90
12013;DHT22;6065;48.138;16.402;2023-04-15T03:28:53;4.90;99.90
12013;DHT22;6065;48.138;16.402;2023-04-15T03:31:20;4.90;99.90
12013;DHT22;6065;48.138;16.402;2023-04-15T03:33:46;4.90;99.90
12013;DHT22;6065;48.138;16.402;2023-04-15T03:36:13;4.90;99.90
12013;DHT22;6065;48.138;16.402;2023-04-15T03:38:40;4.90;99.90
12013;DHT22;6065;48.138;16.402;2023-04-15T03:41:06;4.90;99.90
12013;DHT22;6065;48.138;16.402;2023-04-15T03:43:35;4.90;99.90
12013;DHT22;6065;48.138;16.402;2023-04-15T03:46:01;5.00;99.90
12013;DHT22;6065;48.138;16.402;2023-04-15T03:48:28;5.00;99.90
12013;DHT22;6065;48.138;16.402;2023-04-15T03:50:55;5.00;99.90
12013;DHT22;6065;48.138;16.402;2023-04-15T03:53:22;5.00;99.90
12013;DHT22;6065;48.138;16.402;2023-04-15T03:55:48;5.00;99.90
12013;DHT22;6065;48.138;16.402;2023-04-15T03:58:15;5.00;99.90
12013;DHT22;6065;48.138;16.402;2023-04-15T04:00:43;5.00;99.90
12013;DHT22;6065;48.138;16.402;2023-04-15T04:03:10;5.00;99.90
12013;DHT22;6065;48.138;16.402;2023-04-15T04:05:36;5.00;99.90
12013;DHT22;6065;48.138;16.402;2023-04-15T04:08:05;5.00;99.90
12013;DHT22;6065;48.138;16.402;2023-04-15T04:10:32;5.00;99.90
12013;DHT22;6065;48.138;16.402;2023-04-15T04:13:00;5.00;99.90
12013;DHT22;6065;48.138;16.402;2023-04-15T04:15:27;5.00;99.90
12013;DHT22;6065;48.138;16.402;2023-04-15T04:17:55;5.00;99.90
12013;DHT22;6065;48.138;16.402;2023-04-15T04:20:22;5.10;99.90
12013;DHT22;6065;48.138;16.402;2023-04-15T04:22:49;5.10;99.90
12013;DHT22;6065;48.138;16.402;2023-04-15T04:25:16;5.10;99.90
12013;DHT22;6065;48.138;16.402;2023-04-15T04:27:42;5.10;99.90
12013;DHT22;6065;48.138;16.402;2023-04-15T04:30:10;5.10;99.90
12013;DHT22;6065;48.138;16.402;2023-04-15T04:32:36;5.10;99.90
12013;DHT22;6065;48.138;16.402;2023-04-15T04:35:05;5.10;99.90
12013;DHT22;6065;48.138;16.402;2023-04-15T04:37:31;5.10;99.90
12013;DHT22;6065;48.138;16.402;2023-04-15T04:39:58;5.10;99.90
12013;DHT22;6065;48.138;16.402;2023-04-15T04:42:25;5.10;99.90
12013;DHT22;6065;48.138;16.402;2023-04-15T04:44:51;5.10;99.90
12013;DHT22;6065;48.138;16.402;2023-04-15T04:47:18;5.10;99.90
12013;DHT22;6065;48.138;16.402;2023-04-15T04:49:45;5.10;99.90
12013;DHT22;6065;48.138;16.402;2023-04-15T04:52:13;5.10;99.90
12013;DHT22;6065;48.138;16.402;2023-04-15T04:54:39;5.10;99.90
12013;DHT22;6065;48.138;16.402;2023-04-15T04:57:06;5.10;99.90
12013;DHT22;6065;48.138;16.402;2023-04-15T04:59:33;5.10;99.90
12013;DHT22;6065;48.138;16.402;2023-04-15T05:02:00;5.10;99.90
12013;DHT22;6065;48.138;16.402;2023-04-15T05:04:27;5.10;99.90
12013;DHT22;6065;48.138;16.402;2023-04-15T05:06:55;5.20;99.90
12013;DHT22;6065;48.138;16.402;2023-04-15T05:09:23;5.20;99.90
12013;DHT22;6065;48.138;16.402;2023-04-15T05:11:50;5.20;99.90
12013;DHT22;6065;48.138;16.402;2023-04-15T05:14:16;5.20;99.90
12013;DHT22;6065;48.138;16.402;2023-04-15T05:16:43;5.20;99.90
12013;DHT22;6065;48.138;16.402;2023-04-15T05:19:10;5.20;99.90
12013;DHT22;6065;48.138;16.402;2023-04-15T05:21:36;5.30;99.90
12013;DHT22;6065;48.138;16.402;2023-04-15T05:24:03;5.30;99.90
12013;DHT22;6065;48.138;16.402;2023-04-15T05:26:32;5.30;99.90
12013;DHT22;6065;48.138;16.402;2023-04-15T05:28:58;5.30;99.90
12013;DHT22;6065;48.138;16.402;2023-04-15T05:31:25;5.30;99.90
12013;DHT22;6065;48.138;16.402;2023-04-15T05:33:52;5.40;99.90
12013;DHT22;6065;48.138;16.402;2023-04-15T05:36:18;5.40;99.90
12013;DHT22;6065;48.138;16.402;2023-04-15T05:38:45;5.40;99.90
12013;DHT22;6065;48.138;16.402;2023-04-15T05:41:12;5.40;99.90
12013;DHT22;6065;48.138;16.402;2023-04-15T05:43:41;5.50;99.90
12013;DHT22;6065;48.138;16.402;2023-04-15T05:46:08;5.50;99.90
12013;DHT22;6065;48.138;16.402;2023-04-15T05:48:34;5.50;99.90
12013;DHT22;6065;48.138;16.402;2023-04-15T05:51:01;5.50;99.90
12013;DHT22;6065;48.138;16.402;2023-04-15T05:53:28;5.50;99.90
12013;DHT22;6065;48.138;16.402;2023-04-15T05:55:54;5.60;99.90
12013;DHT22;6065;48.138;16.402;2023-04-15T05:58:21;5.60;99.90
12013;DHT22;6065;48.138;16.402;2023-04-15T06:00:49;5.60;99.90
12013;DHT22;6065;48.138;16.402;2023-04-15T06:03:16;5.60;99.90
12013;DHT22;6065;48.138;16.402;2023-04-15T06:05:43;5.60;99.90
12013;DHT22;6065;48.138;16.402;2023-04-15T06:08:09;5.60;99.90
12013;DHT22;6065;48.138;16.402;2023-04-15T06:10:36;5.70;99.90
12013;DHT22;6065;48.138;16.402;2023-04-15T06:13:03;5.70;99.90
12013;DHT22;6065;48.138;16.402;2023-04-15T06:15:30;5.70;99.90
12013;DHT22;6065;48.138;16.402;2023-04-15T06:17:58;5.70;99.90
12013;DHT22;6065;48.138;16.402;2023-04-15T06:20:24;5.70;99.90
12013;DHT22;6065;48.138;16.402;2023-04-15T06:22:52;5.70;99.90
12013;DHT22;6065;48.138;16.402;2023-04-15T06:25:18;5.70;99.90
12013;DHT22;6065;48.138;16.402;2023-04-15T06:27:45;5.80;99.90
12013;DHT22;6065;48.138;16.402;2023-04-15T06:30:12;5.80;99.90
12013;DHT22;6065;48.138;16.402;2023-04-15T06:32:39;5.90;99.90
12013;DHT22;6065;48.138;16.402;2023-04-15T06:35:07;5.90;99.90
12013;DHT22;6065;48.138;16.402;2023-04-15T06:37:34;5.90;99.90
12013;DHT22;6065;48.138;16.402;2023-04-15T06:40:01;5.90;99.90
12013;DHT22;6065;48.138;16.402;2023-04-15T06:42:29;5.90;99.90
12013;DHT22;6065;48.138;16.402;2023-04-15T06:44:56;6.00;99.90
12013;DHT22;6065;48.138;16.402;2023-04-15T06:47:22;6.00;99.90
12013;DHT22;6065;48.138;16.402;2023-04-15T06:49:49;6.00;99.90
12013;DHT22;6065;48.138;16.402;2023-04-15T06:52:17;6.00;99.90
12013;DHT22;6065;48.138;16.402;2023-04-15T06:54:44;6.00;99.90
12013;DHT22;6065;48.138;16.402;2023-04-15T06:57:11;6.10;99.90
12013;DHT22;6065;48.138;16.402;2023-04-15T06:59:37;6.10;99.90
12013;DHT22;6065;48.138;16.402;2023-04-15T07:02:04;6.10;99.90
12013;DHT22;6065;48.138;16.402;2023-04-15T07:04:32;6.10;99.90
12013;DHT22;6065;48.138;16.402;2023-04-15T07:06:58;6.20;99.90
12013;DHT22;6065;48.138;16.402;2023-04-15T07:09:28;6.20;99.90
12013;DHT22;6065;48.138;16.402;2023-04-15T07:11:55;6.20;99.90
12013;DHT22;6065;48.138;16.402;2023-04-15T07:14:22;6.30;99.90
12013;DHT22;6065;48.138;16.402;2023-04-15T07:16:49;6.30;99.90
12013;DHT22;6065;48.138;16.402;2023-04-15T07:19:15;6.40;99.90
12013;DHT22;6065;48.138;16.402;2023-04-15T07:21:42;6.40;99.90
12013;DHT22;6065;48.138;16.402;2023-04-15T07:24:09;6.50;99.90
12013;DHT22;6065;48.138;16.402;2023-04-15T07:26:37;6.50;99.90
12013;DHT22;6065;48.138;16.402;2023-04-15T07:29:04;6.50;99.90
12013;DHT22;6065;48.138;16.402;2023-04-15T07:31:30;6.60;99.90
12013;DHT22;6065;48.138;16.402;2023-04-15T07:33:57;6.60;99.90
12013;DHT22;6065;48.138;16.402;2023-04-15T07:36:24;6.60;99.90
12013;DHT22;6065;48.138;16.402;2023-04-15T07:38:50;6.60;99.90
12013;DHT22;6065;48.138;16.402;2023-04-15T07:41:17;6.70;99.90
12013;DHT22;6065;48.138;16.402;2023-04-15T07:43:46;6.70;99.90
12013;DHT22;6065;48.138;16.402;2023-04-15T07:46:13;6.70;99.90
12013;DHT22;6065;48.138;16.402;2023-04-15T07:48:39;6.70;99.90
12013;DHT22;6065;48.138;16.402;2023-04-15T07:51:07;6.80;99.90
12013;DHT22;6065;48.138;16.402;2023-04-15T07:53:35;6.80;99.90
12013;DHT22;6065;48.138;16.402;2023-04-15T07:56:02;6.80;99.90
12013;DHT22;6065;48.138;16.402;2023-04-15T07:58:29;6.80;99.90
12013;DHT22;6065;48.138;16.402;2023-04-15T08:00:57;6.90;99.90
12013;DHT22;6065;48.138;16.402;2023-04-15T08:03:24;6.90;99.90
12013;DHT22;6065;48.138;16.402;2023-04-15T08:05:50;7.00;99.90
12013;DHT22;6065;48.138;16.402;2023-04-15T08:08:17;7.00;99.90
12013;DHT22;6065;48.138;16.402;2023-04-15T08:10:44;7.00;99.90
12013;DHT22;6065;48.138;16.402;2023-04-15T08:13:11;7.00;99.90
12013;DHT22;6065;48.138;16.402;2023-04-15T08:15:37;7.00;99.90
12013;DHT22;6065;48.138;16.402;2023-04-15T08:18:05;7.00;99.90
12013;DHT22;6065;48.138;16.402;2023-04-15T08:20:32;7.00;99.90
12013;DHT22;6065;48.138;16.402;2023-04-15T08:22:59;7.00;99.90
12013;DHT22;6065;48.138;16.402;2023-04-15T08:25:26;7.00;99.90
12013;DHT22;6065;48.138;16.402;2023-04-15T08:27:54;7.00;99.90
12013;DHT22;6065;48.138;16.402;2023-04-15T08:30:21;7.00;99.90
12013;DHT22;6065;48.138;16.402;2023-04-15T08:32:49;7.00;99.90
12013;DHT22;6065;48.138;16.402;2023-04-15T08:35:17;7.10;99.90
12013;DHT22;6065;48.138;16.402;2023-04-15T08:37:44;7.00;99.90
12013;DHT22;6065;48.138;16.402;2023-04-15T08:40:10;7.00;99.90
12013;DHT22;6065;48.138;16.402;2023-04-15T08:42:40;7.00;99.90
12013;DHT22;6065;48.138;16.402;2023-04-15T08:45:07;7.00;99.90
12013;DHT22;6065;48.138;16.402;2023-04-15T08:47:35;7.10;99.90
12013;DHT22;6065;48.138;16.402;2023-04-15T08:50:03;7.10;99.90
12013;DHT22;6065;48.138;16.402;2023-04-15T08:52:32;7.10;99.90
12013;DHT22;6065;48.138;16.402;2023-04-15T08:54:58;7.10;99.90
12013;DHT22;6065;48.138;16.402;2023-04-15T08:57:26;7.10;99.90
12013;DHT22;6065;48.138;16.402;2023-04-15T08:59:54;7.10;99.90
12013;DHT22;6065;48.138;16.402;2023-04-15T09:02:21;7.10;99.90
12013;DHT22;6065;48.138;16.402;2023-04-15T09:04:48;7.10;99.90
12013;DHT22;6065;48.138;16.402;2023-04-15T09:07:15;7.10;99.90
12013;DHT22;6065;48.138;16.402;2023-04-15T09:09:43;7.20;99.90
12013;DHT22;6065;48.138;16.402;2023-04-15T09:12:10;7.20;99.90
12013;DHT22;6065;48.138;16.402;2023-04-15T09:14:37;7.20;99.90
12013;DHT22;6065;48.138;16.402;2023-04-15T09:17:05;7.20;99.90
12013;DHT22;6065;48.138;16.402;2023-04-15T09:19:35;7.20;99.90
12013;DHT22;6065;48.138;16.402;2023-04-15T09:22:02;7.20;99.90
12013;DHT22;6065;48.138;16.402;2023-04-15T09:24:33;7.20;99.90
12013;DHT22;6065;48.138;16.402;2023-04-15T09:27:03;7.30;99.90
12013;DHT22;6065;48.138;16.402;2023-04-15T09:29:29;7.20;99.90
12013;DHT22;6065;48.138;16.402;2023-04-15T09:31:57;7.20;99.90
12013;DHT22;6065;48.138;16.402;2023-04-15T09:34:34;7.20;99.90
12013;DHT22;6065;48.138;16.402;2023-04-15T09:37:02;7.30;99.90
12013;DHT22;6065;48.138;16.402;2023-04-15T09:39:34;7.30;99.90
12013;DHT22;6065;48.138;16.402;2023-04-15T09:42:11;7.30;99.90
12013;DHT22;6065;48.138;16.402;2023-04-15T09:44:38;7.30;99.90
12013;DHT22;6065;48.138;16.402;2023-04-15T09:47:05;7.40;99.90
12013;DHT22;6065;48.138;16.402;2023-04-15T09:49:32;7.40;99.90
12013;DHT22;6065;48.138;16.402;2023-04-15T09:51:59;7.40;99.90
12013;DHT22;6065;48.138;16.402;2023-04-15T09:54:31;7.40;99.90
12013;DHT22;6065;48.138;16.402;2023-04-15T09:57:03;7.40;99.90
12013;DHT22;6065;48.138;16.402;2023-04-15T09:59:32;7.40;99.90
12013;DHT22;6065;48.138;16.402;2023-04-15T10:01:59;7.40;99.90
12013;DHT22;6065;48.138;16.402;2023-04-15T10:04:26;7.40;99.90
12013;DHT22;6065;48.138;16.402;2023-04-15T10:06:54;7.40;99.90
12013;DHT22;6065;48.138;16.402;2023-04-15T10:09:21;7.40;99.90
12013;DHT22;6065;48.138;16.402;2023-04-15T10:11:47;7.40;99.90
12013;DHT22;6065;48.138;16.402;2023-04-15T10:14:15;7.40;99.90
12013;DHT22;6065;48.138;16.402;2023-04-15T10:16:43;7.40;99.90
12013;DHT22;6065;48.138;16.402;2023-04-15T10:19:13;7.50;99.90
12013;DHT22;6065;48.138;16.402;2023-04-15T10:21:41;7.50;99.90
12013;DHT22;6065;48.138;16.402;2023-04-15T10:24:11;7.50;99.90
12013;DHT22;6065;48.138;16.402;2023-04-15T10:26:38;7.50;99.90
12013;DHT22;6065;48.138;16.402;2023-04-15T10:29:05;7.50;99.90
12013;DHT22;6065;48.138;16.402;2023-04-15T10:31:32;7.50;99.90
12013;DHT22;6065;48.138;16.402;2023-04-15T10:34:01;7.60;99.90
12013;DHT22;6065;48.138;16.402;2023-04-15T10:36:30;7.60;99.90
12013;DHT22;6065;48.138;16.402;2023-04-15T10:38:57;7.60;99.90
12013;DHT22;6065;48.138;16.402;2023-04-15T10:41:24;7.70;99.90
12013;DHT22;6065;48.138;16.402;2023-04-15T10:43:52;7.60;99.90
12013;DHT22;6065;48.138;16.402;2023-04-15T10:46:21;7.70;99.90
12013;DHT22;6065;48.138;16.402;2023-04-15T10:48:48;7.70;99.90
12013;DHT22;6065;48.138;16.402;2023-04-15T10:51:17;7.70;99.90
12013;DHT22;6065;48.138;16.402;2023-04-15T10:53:54;7.70;99.90
12013;DHT22;6065;48.138;16.402;2023-04-15T10:56:21;7.80;99.90
12013;DHT22;6065;48.138;16.402;2023-04-15T10:58:48;7.80;99.90
12013;DHT22;6065;48.138;16.402;2023-04-15T11:01:15;7.80;99.90
12013;DHT22;6065;48.138;16.402;2023-04-15T11:03:42;7.90;99.90
12013;DHT22;6065;48.138;16.402;2023-04-15T11:06:09;7.90;99.90
12013;DHT22;6065;48.138;16.402;2023-04-15T11:08:56;7.90;99.90
12013;DHT22;6065;48.138;16.402;2023-04-15T11:14:13;8.00;99.90
12013;DHT22;6065;48.138;16.402;2023-04-15T11:16:41;8.00;99.90
12013;DHT22;6065;48.138;16.402;2023-04-15T11:19:09;8.10;99.90
12013;DHT22;6065;48.138;16.402;2023-04-15T11:21:35;8.00;99.90
12013;DHT22;6065;48.138;16.402;2023-04-15T11:24:03;8.10;99.90
12013;DHT22;6065;48.138;16.402;2023-04-15T11:26:30;8.10;99.90
12013;DHT22;6065;48.138;16.402;2023-04-15T11:28:57;8.20;99.90
12013;DHT22;6065;48.138;16.402;2023-04-15T11:31:25;8.10;99.90
12013;DHT22;6065;48.138;16.402;2023-04-15T11:33:53;8.10;99.90
12013;DHT22;6065;48.138;16.402;2023-04-15T11:36:22;8.10;99.90
12013;DHT22;6065;48.138;16.402;2023-04-15T11:38:50;8.10;99.90
12013;DHT22;6065;48.138;16.402;2023-04-15T11:41:20;8.10;99.90
12013;DHT22;6065;48.138;16.402;2023-04-15T11:43:47;8.20;99.90
12013;DHT22;6065;48.138;16.402;2023-04-15T11:46:14;8.20;99.90
12013;DHT22;6065;48.138;16.402;2023-04-15T11:48:41;8.20;99.90
12013;DHT22;6065;48.138;16.402;2023-04-15T11:51:08;8.20;99.90
12013;DHT22;6065;48.138;16.402;2023-04-15T11:53:36;8.20;99.90
12013;DHT22;6065;48.138;16.402;2023-04-15T11:56:02;8.20;99.90
12013;DHT22;6065;48.138;16.402;2023-04-15T11:58:32;8.20;99.90
12013;DHT22;6065;48.138;16.402;2023-04-15T12:00:59;8.20;99.90
12013;DHT22;6065;48.138;16.402;2023-04-15T12:03:27;8.20;99.90
12013;DHT22;6065;48.138;16.402;2023-04-15T12:06:04;8.20;99.90
12013;DHT22;6065;48.138;16.402;2023-04-15T12:08:47;8.30;99.90
12013;DHT22;6065;48.138;16.402;2023-04-15T12:11:13;8.30;99.90
12013;DHT22;6065;48.138;16.402;2023-04-15T12:13:44;8.40;99.90
12013;DHT22;6065;48.138;16.402;2023-04-15T12:16:11;8.50;99.90
12013;DHT22;6065;48.138;16.402;2023-04-15T12:18:38;8.50;99.90
12013;DHT22;6065;48.138;16.402;2023-04-15T12:21:08;8.50;99.90
12013;DHT22;6065;48.138;16.402;2023-04-15T12:23:35;8.50;99.90
12013;DHT22;6065;48.138;16.402;2023-04-15T12:26:03;8.60;99.90
12013;DHT22;6065;48.138;16.402;2023-04-15T12:28:30;8.60;99.90
12013;DHT22;6065;48.138;16.402;2023-04-15T12:30:58;8.60;99.90
12013;DHT22;6065;48.138;16.402;2023-04-15T12:33:31;8.50;99.90
12013;DHT22;6065;48.138;16.402;2023-04-15T12:35:58;8.50;99.90
12013;DHT22;6065;48.138;16.402;2023-04-15T12:38:24;8.50;99.90
12013;DHT22;6065;48.138;16.402;2023-04-15T12:40:51;8.50;99.90
12013;DHT22;6065;48.138;16.402;2023-04-15T12:43:18;8.50;99.90
12013;DHT22;6065;48.138;16.402;2023-04-15T12:45:45;8.50;99.90
12013;DHT22;6065;48.138;16.402;2023-04-15T12:48:13;8.60;99.90
12013;DHT22;6065;48.138;16.402;2023-04-15T12:50:40;8.70;99.90
12013;DHT22;6065;48.138;16.402;2023-04-15T12:53:06;8.70;99.90
12013;DHT22;6065;48.138;16.402;2023-04-15T12:55:33;8.80;99.90
12013;DHT22;6065;48.138;16.402;2023-04-15T12:58:00;8.90;99.90
12013;DHT22;6065;48.138;16.402;2023-04-15T13:00:27;8.90;99.90
12013;DHT22;6065;48.138;16.402;2023-04-15T13:02:53;9.00;99.90
12013;DHT22;6065;48.138;16.402;2023-04-15T13:05:22;9.10;99.90
12013;DHT22;6065;48.138;16.402;2023-04-15T13:07:48;9.10;99.90
12013;DHT22;6065;48.138;16.402;2023-04-15T13:10:15;9.30;99.90
12013;DHT22;6065;48.138;16.402;2023-04-15T13:12:42;9.50;99.90
12013;DHT22;6065;48.138;16.402;2023-04-15T13:15:11;9.60;99.90
12013;DHT22;6065;48.138;16.402;2023-04-15T13:17:37;9.70;99.90
12013;DHT22;6065;48.138;16.402;2023-04-15T13:20:05;9.70;99.90
12013;DHT22;6065;48.138;16.402;2023-04-15T13:22:33;9.80;99.90
12013;DHT22;6065;48.138;16.402;2023-04-15T13:24:59;9.80;99.90
12013;DHT22;6065;48.138;16.402;2023-04-15T13:27:26;9.90;99.90
12013;DHT22;6065;48.138;16.402;2023-04-15T13:29:53;9.90;99.90
12013;DHT22;6065;48.138;16.402;2023-04-15T13:32:20;9.90;99.90
12013;DHT22;6065;48.138;16.402;2023-04-15T13:34:46;9.90;99.90
12013;DHT22;6065;48.138;16.402;2023-04-15T13:37:13;9.90;99.90
12013;DHT22;6065;48.138;16.402;2023-04-15T13:39:41;9.80;99.90
12013;DHT22;6065;48.138;16.402;2023-04-15T13:42:08;9.80;99.90
12013;DHT22;6065;48.138;16.402;2023-04-15T13:44:34;9.80;99.90
12013;DHT22;6065;48.138;16.402;2023-04-15T13:47:01;9.80;99.90
12013;DHT22;6065;48.138;16.402;2023-04-15T13:49:28;9.80;99.90
12013;DHT22;6065;48.138;16.402;2023-04-15T13:51:55;9.90;99.90
12013;DHT22;6065;48.138;16.402;2023-04-15T13:54:21;9.90;99.90
12013;DHT22;6065;48.138;16.402;2023-04-15T13:56:49;9.90;99.90
12013;DHT22;6065;48.138;16.402;2023-04-15T13:59:16;10.00;99.90
12013;DHT22;6065;48.138;16.402;2023-04-15T14:01:43;10.00;99.90
12013;DHT22;6065;48.138;16.402;2023-04-15T14:04:10;10.00;99.90
12013;DHT22;6065;48.138;16.402;2023-04-15T14:06:36;10.00;99.90
12013;DHT22;6065;48.138;16.402;2023-04-15T14:09:03;10.00;99.90
12013;DHT22;6065;48.138;16.402;2023-04-15T14:11:30;10.10;99.90
12013;DHT22;6065;48.138;16.402;2023-04-15T14:13:58;10.10;99.90
12013;DHT22;6065;48.138;16.402;2023-04-15T14:16:25;10.20;99.90
12013;DHT22;6065;48.138;16.402;2023-04-15T14:18:51;10.20;99.90
12013;DHT22;6065;48.138;16.402;2023-04-15T14:21:18;10.20;99.90
12013;DHT22;6065;48.138;16.402;2023-04-15T14:23:45;10.20;99.90
12013;DHT22;6065;48.138;16.402;2023-04-15T14:26:12;10.20;99.90
12013;DHT22;6065;48.138;16.402;2023-04-15T14:28:39;10.20;99.90
12013;DHT22;6065;48.138;16.402;2023-04-15T14:31:07;10.10;99.90
12013;DHT22;6065;48.138;16.402;2023-04-15T14:33:33;10.10;99.90
12013;DHT22;6065;48.138;16.402;2023-04-15T14:36:00;10.00;99.90
12013;DHT22;6065;48.138;16.402;2023-04-15T14:38:27;10.00;99.90
12013;DHT22;6065;48.138;16.402;2023-04-15T14:40:54;10.00;99.90
12013;DHT22;6065;48.138;16.402;2023-04-15T14:43:20;10.00;99.90
12013;DHT22;6065;48.138;16.402;2023-04-15T14:45:47;9.90;99.90
12013;DHT22;6065;48.138;16.402;2023-04-15T14:48:15;9.90;99.90
12013;DHT22;6065;48.138;16.402;2023-04-15T14:50:42;9.90;99.90
12013;DHT22;6065;48.138;16.402;2023-04-15T14:53:08;9.90;99.90
12013;DHT22;6065;48.138;16.402;2023-04-15T14:55:35;9.80;99.90
12013;DHT22;6065;48.138;16.402;2023-04-15T14:58:02;9.80;99.90
12013;DHT22;6065;48.138;16.402;2023-04-15T15:00:28;9.70;99.90
12013;DHT22;6065;48.138;16.402;2023-04-15T15:02:55;9.70;99.90
12013;DHT22;6065;48.138;16.402;2023-04-15T15:05:23;9.60;99.90
12013;DHT22;6065;48.138;16.402;2023-04-15T15:07:50;9.60;99.90
12013;DHT22;6065;48.138;16.402;2023-04-15T15:10:17;9.50;99.90
12013;DHT22;6065;48.138;16.402;2023-04-15T15:12:43;9.40;99.90
12013;DHT22;6065;48.138;16.402;2023-04-15T15:15:10;9.40;99.90
12013;DHT22;6065;48.138;16.402;2023-04-15T15:17:37;9.30;99.90
12013;DHT22;6065;48.138;16.402;2023-04-15T15:20:04;9.30;99.90
12013;DHT22;6065;48.138;16.402;2023-04-15T15:22:32;9.30;99.90
12013;DHT22;6065;48.138;16.402;2023-04-15T15:24:58;9.20;99.90
12013;DHT22;6065;48.138;16.402;2023-04-15T15:27:26;9.20;99.90
12013;DHT22;6065;48.138;16.402;2023-04-15T15:29:53;9.20;99.90
12013;DHT22;6065;48.138;16.402;2023-04-15T15:32:20;9.20;99.90
12013;DHT22;6065;48.138;16.402;2023-04-15T15:34:46;9.20;99.90
12013;DHT22;6065;48.138;16.402;2023-04-15T15:37:13;9.20;99.90
12013;DHT22;6065;48.138;16.402;2023-04-15T15:39:41;9.30;99.90
12013;DHT22;6065;48.138;16.402;2023-04-15T15:42:08;9.30;99.90
12013;DHT22;6065;48.138;16.402;2023-04-15T15:44:35;9.30;99.90
12013;DHT22;6065;48.138;16.402;2023-04-15T15:47:02;9.30;99.90